Time;durP1;ratioP1;P1;durP2;ratioP2;P2;SDS_P1;SDS_P2;PMS_P1;PMS_P2;Temp;Humidity;BMP_temperature;BMP_pressure;BME280_temperature;BME280_humidity;BME280_pressure;Samples;Min_cycle;Max_cycle;Signal;HPM_P1;HPM_P2
2022/10/23 00:00:56;;;;;;;8.38;4.85;;;17.50;86.40;;;;;;10815502;33;20387;-79
2022/10/23 00:06:58;;;;;;;11.18;5.03;;;17.60;86.50;;;;;;10825611;33;20062;-78
2022/10/23 00:13:01;;;;;;;6.43;4.03;;;17.50;86.60;;;;;;10827077;33;20024;-79
2022/10/23 00:19:04;;;;;;;7.85;4.62;;;17.50;86.50;;;;;;10826627;32;20062;-78
2022/10/23 00:25:07;;;;;;;9.25;6.28;;;17.50;86.40;;;;;;10809339;27;645033;-79
2022/10/23 00:31:10;;;;;;;11.30;5.93;;;17.50;86.60;;;;;;10827234;33;20401;-79
2022/10/23 00:37:15;;;;;;;6.30;4.62;;;17.40;86.60;;;;;;10827418;32;20104;-79
2022/10/23 00:43:25;;;;;;;8.25;4.93;;;17.40;86.60;;;;;;10813598;32;20054;-79
2022/10/23 00:49:27;;;;;;;6.82;4.30;;;17.40;86.50;;;;;;10827159;32;20054;-79
2022/10/23 00:55:31;;;;;;;9.57;3.75;;;17.40;86.40;;;;;;10826985;33;20051;-79
2022/10/23 01:01:33;;;;;;;8.32;4.95;;;17.50;86.40;;;;;;10822596;33;20059;-79
2022/10/23 01:07:35;;;;;;;7.93;5.75;;;17.40;86.40;;;;;;10825758;32;20051;-79
2022/10/23 01:14:06;;;;;;;5.87;4.37;;;17.40;86.40;;;;;;10826449;33;20028;-79
2022/10/23 01:20:35;;;;;;;8.35;4.45;;;17.40;86.40;;;;;;10826211;33;20020;-79
2022/10/23 01:26:54;;;;;;;6.45;4.37;;;17.40;86.40;;;;;;10825941;33;20347;-79
2022/10/23 01:33:43;;;;;;;5.12;3.12;;;17.30;86.50;;;;;;10821779;33;20028;-79
2022/10/23 01:39:50;;;;;;;7.05;4.62;;;17.20;86.50;;;;;;10822453;33;20040;-79
2022/10/23 01:45:58;;;;;;;4.00;2.83;;;17.20;86.60;;;;;;10825575;33;20438;-79
2022/10/23 01:52:05;;;;;;;5.35;3.70;;;17.20;86.50;;;;;;10825445;33;20024;-79
2022/10/23 01:58:09;;;;;;;4.68;3.12;;;17.10;86.60;;;;;;10823216;33;20059;-79
2022/10/23 02:04:15;;;;;;;4.37;3.37;;;17.20;86.60;;;;;;10821015;32;20059;-79
2022/10/23 02:10:18;;;;;;;3.78;2.92;;;17.20;86.70;;;;;;10824670;33;20046;-79
2022/10/23 02:16:51;;;;;;;3.20;2.40;;;17.20;86.60;;;;;;10824679;33;20028;-79
2022/10/23 02:22:59;;;;;;;5.37;3.67;;;17.10;86.50;;;;;;10820489;33;20024;-79
2022/10/23 02:29:26;;;;;;;4.33;3.03;;;17.10;86.60;;;;;;10820333;33;20024;-79
2022/10/23 02:35:31;;;;;;;3.20;2.00;;;17.00;86.70;;;;;;10820262;33;20047;-78
2022/10/23 02:41:45;;;;;;;3.85;2.67;;;17.00;86.60;;;;;;10811489;32;20012;-79
2022/10/23 02:48:00;;;;;;;3.47;2.37;;;16.90;86.70;;;;;;10823884;33;20028;-79
2022/10/23 02:54:19;;;;;;;2.87;2.00;;;16.90;86.60;;;;;;10823941;33;20056;-79
2022/10/23 03:00:22;;;;;;;3.33;2.27;;;16.90;86.50;;;;;;10821244;33;20042;-79
2022/10/23 03:06:25;;;;;;;2.95;2.33;;;16.90;86.60;;;;;;10824436;32;20047;-79
2022/10/23 03:12:27;;;;;;;3.10;2.30;;;16.90;86.80;;;;;;10829975;33;20028;-79
2022/10/23 03:18:29;;;;;;;3.70;2.60;;;16.90;86.70;;;;;;10825603;33;20036;-79
2022/10/23 03:24:32;;;;;;;3.00;1.98;;;16.80;86.70;;;;;;10825285;33;20039;-79
2022/10/23 03:30:34;;;;;;;3.70;2.50;;;16.80;86.70;;;;;;10829429;33;20040;-79
2022/10/23 03:36:37;;;;;;;3.53;2.37;;;16.80;86.70;;;;;;10829457;33;20004;-79
2022/10/23 03:42:39;;;;;;;2.55;2.30;;;16.80;86.70;;;;;;10825079;33;20028;-80
2022/10/23 03:48:42;;;;;;;3.97;3.03;;;16.80;86.70;;;;;;10823917;33;20328;-79
2022/10/23 03:54:45;;;;;;;3.12;2.50;;;16.80;86.70;;;;;;10828843;33;20046;-79
2022/10/23 04:00:47;;;;;;;3.78;2.30;;;16.80;86.70;;;;;;10828623;33;20008;-79
2022/10/23 04:06:49;;;;;;;3.35;2.50;;;16.80;86.70;;;;;;10828359;33;20023;-79
2022/10/23 04:12:53;;;;;;;3.42;2.72;;;16.80;86.70;;;;;;10828203;33;20070;-79
2022/10/23 04:18:55;;;;;;;3.30;1.92;;;16.80;86.60;;;;;;10827869;32;20028;-79
2022/10/23 04:24:57;;;;;;;2.00;1.60;;;16.70;86.60;;;;;;10828003;33;20024;-79
2022/10/23 04:31:00;;;;;;;3.67;2.12;;;16.60;86.70;;;;;;10823560;33;20062;-79
2022/10/23 04:37:02;;;;;;;4.53;2.28;;;16.60;86.70;;;;;;10827644;33;20020;-79
2022/10/23 04:43:04;;;;;;;3.33;2.47;;;16.60;86.70;;;;;;10826948;33;20036;-79
2022/10/23 04:49:06;;;;;;;3.85;2.87;;;16.50;86.80;;;;;;10827237;33;20025;-79
2022/10/23 04:55:14;;;;;;;2.42;1.95;;;16.50;86.70;;;;;;10827089;33;20032;-79
2022/10/23 05:01:16;;;;;;;4.40;2.65;;;16.50;86.70;;;;;;10821806;33;20024;-79
2022/10/23 05:07:18;;;;;;;2.55;2.03;;;16.50;86.70;;;;;;10826578;33;20324;-80
2022/10/23 05:13:21;;;;;;;3.25;2.12;;;16.50;86.70;;;;;;10826589;32;20054;-79
2022/10/23 05:19:28;;;;;;;2.03;1.77;;;16.50;86.60;;;;;;10821236;33;20544;-79
2022/10/23 05:26:05;;;;;;;2.28;1.70;;;16.50;86.50;;;;;;10826220;33;20050;-79
2022/10/23 05:32:10;;;;;;;2.45;2.17;;;16.40;86.60;;;;;;10825164;32;20062;-79
2022/10/23 05:38:14;;;;;;;5.05;1.77;;;16.40;86.60;;;;;;10825801;33;20051;-79
2022/10/23 05:44:16;;;;;;;2.25;1.83;;;16.30;86.60;;;;;;10821588;33;20336;-79
2022/10/23 05:50:21;;;;;;;3.15;2.10;;;16.40;86.60;;;;;;10825364;33;20422;-79
2022/10/23 05:56:23;;;;;;;3.22;2.10;;;16.30;86.50;;;;;;10823454;32;20082;-79
2022/10/23 06:02:43;;;;;;;1.87;1.73;;;16.20;86.60;;;;;;10825257;33;20028;-80
2022/10/23 06:08:45;;;;;;;2.40;1.47;;;16.20;86.60;;;;;;10824983;33;20023;-80
2022/10/23 06:15:10;;;;;;;2.70;1.75;;;16.30;86.60;;;;;;10823107;33;20017;-79
2022/10/23 06:21:16;;;;;;;2.83;1.58;;;16.30;86.50;;;;;;10824655;32;20327;-79
2022/10/23 06:27:19;;;;;;;2.55;1.80;;;16.30;86.50;;;;;;10824436;33;20394;-79
2022/10/23 06:33:21;;;;;;;2.95;1.92;;;16.30;86.50;;;;;;10824883;33;20047;-79
2022/10/23 06:39:24;;;;;;;2.33;1.75;;;16.20;86.60;;;;;;10824815;32;20432;-79
2022/10/23 06:45:28;;;;;;;1.75;1.15;;;16.30;86.50;;;;;;10826687;33;20012;-79
2022/10/23 06:51:32;;;;;;;1.80;1.52;;;16.30;86.60;;;;;;10830647;32;20397;-79
2022/10/23 06:57:34;;;;;;;6.10;2.03;;;16.30;86.50;;;;;;10830501;33;20044;-79
2022/10/23 07:03:36;;;;;;;2.83;2.08;;;16.30;86.60;;;;;;10826659;32;20039;-79
2022/10/23 07:09:59;;;;;;;2.67;1.60;;;16.40;86.50;;;;;;10829941;33;20309;-75
2022/10/23 07:16:17;;;;;;;6.90;2.53;;;16.50;86.50;;;;;;10827936;32;20020;-75
2022/10/23 07:22:30;;;;;;;4.20;2.65;;;16.60;86.50;;;;;;10825640;33;20043;-75
2022/10/23 07:28:35;;;;;;;2.87;2.25;;;16.70;86.70;;;;;;10827429;33;20035;-75
2022/10/23 07:34:37;;;;;;;3.87;2.50;;;16.70;86.80;;;;;;10825224;33;20024;-75
2022/10/23 07:40:43;;;;;;;2.85;2.17;;;16.80;86.70;;;;;;10829160;33;20025;-77
2022/10/23 07:46:45;;;;;;;3.28;2.17;;;16.80;86.80;;;;;;10829015;33;20012;-75
2022/10/23 07:52:48;;;;;;;4.53;3.30;;;16.90;86.80;;;;;;10828302;32;20016;-73
2022/10/23 07:59:00;;;;;;;3.28;2.30;;;17.00;87.00;;;;;;10828615;33;20020;-74
2022/10/23 08:05:05;;;;;;;9.63;2.60;;;17.00;87.00;;;;;;10828291;33;20412;-75
2022/10/23 08:11:12;;;;;;;3.05;1.80;;;17.10;87.00;;;;;;10828233;33;20351;-74
2022/10/23 08:17:15;;;;;;;2.30;1.98;;;17.10;86.90;;;;;;10814955;33;20430;-73
2022/10/23 08:23:19;;;;;;;3.72;2.35;;;17.20;86.90;;;;;;10831168;27;20043;-74
2022/10/23 08:29:21;;;;;;;3.53;2.08;;;17.30;86.80;;;;;;10825892;33;20040;-74
2022/10/23 08:35:24;;;;;;;2.65;1.85;;;17.40;86.80;;;;;;10827517;33;20085;-73
2022/10/23 08:41:36;;;;;;;4.03;2.20;;;17.50;86.60;;;;;;10810133;32;20059;-73
2022/10/23 08:47:50;;;;;;;3.40;2.10;;;17.50;86.40;;;;;;10824278;33;20074;-73
2022/10/23 08:54:02;;;;;;;5.18;2.03;;;17.70;86.30;;;;;;10827105;33;20024;-73
2022/10/23 09:00:07;;;;;;;4.03;2.05;;;17.80;86.10;;;;;;10820398;33;20555;-73
2022/10/23 09:06:29;;;;;;;2.90;1.83;;;17.90;85.90;;;;;;10825745;32;20100;-73
2022/10/23 09:12:31;;;;;;;3.97;2.22;;;18.00;85.70;;;;;;10877292;32;20337;-73
2022/10/23 09:18:34;;;;;;;3.20;1.85;;;18.10;85.50;;;;;;10826405;33;20059;-73
2022/10/23 09:24:36;;;;;;;2.95;2.05;;;18.10;85.40;;;;;;10826196;33;20340;-73
2022/10/23 09:30:41;;;;;;;1.90;1.42;;;18.30;85.50;;;;;;10826019;33;20400;-73
2022/10/23 09:36:49;;;;;;;4.25;2.42;;;18.30;85.30;;;;;;10825574;33;20407;-77
2022/10/23 09:42:56;;;;;;;;;;;18.40;85.30;;;;;;10825891;33;20020;-77
2022/10/23 09:48:58;;;;;;;5.40;1.95;;;18.60;85.30;;;;;;10824785;33;19943;-77
2022/10/23 09:55:02;;;;;;;2.15;1.52;;;18.70;85.00;;;;;;10825151;33;20024;-76
2022/10/23 10:01:04;;;;;;;3.92;2.22;;;18.80;84.70;;;;;;10804666;32;20064;-77
2022/10/23 10:07:25;;;;;;;3.00;2.03;;;18.90;84.30;;;;;;10788183;33;20028;-77
2022/10/23 10:13:26;;;;;;;2.55;1.95;;;19.00;84.00;;;;;;10787911;33;20411;-76
2022/10/23 10:19:34;;;;;;;3.85;1.77;;;19.10;83.80;;;;;;10787642;32;20025;-77
2022/10/23 10:25:59;;;;;;;3.78;1.65;;;19.20;83.50;;;;;;10807840;33;20016;-77
2022/10/23 10:32:08;;;;;;;3.78;1.95;;;19.30;83.30;;;;;;10824288;33;20317;-77
2022/10/23 10:38:26;;;;;;;2.12;1.87;;;19.50;83.20;;;;;;10824337;33;20020;-76
2022/10/23 10:44:48;;;;;;;5.62;2.80;;;19.70;82.70;;;;;;10824191;33;20389;-76
2022/10/23 10:51:04;;;;;;;4.05;1.85;;;19.80;82.50;;;;;;10822905;33;20023;-75
2022/10/23 10:57:41;;;;;;;4.75;2.70;;;19.80;82.30;;;;;;10819769;33;20020;-76
2022/10/23 11:03:55;;;;;;;5.12;3.05;;;19.80;82.40;;;;;;10671277;33;20037;-76
2022/10/23 11:10:02;;;;;;;4.82;1.92;;;20.10;81.90;;;;;;10673994;33;20311;-76
2022/10/23 11:16:24;;;;;;;7.05;3.55;;;20.20;81.40;;;;;;10673889;33;20061;-75
2022/10/23 11:22:57;;;;;;;4.47;2.83;;;20.40;80.90;;;;;;10669659;33;20033;-76
2022/10/23 11:29:14;;;;;;;5.75;2.90;;;20.60;80.50;;;;;;10676079;33;20052;-75
2022/10/23 11:35:19;;;;;;;6.10;3.17;;;20.60;80.40;;;;;;10680992;33;20032;-74
2022/10/23 11:41:24;;;;;;;5.07;3.10;;;20.40;80.70;;;;;;10828974;33;20200;-74
2022/10/23 11:47:37;;;;;;;4.30;2.62;;;20.20;81.00;;;;;;10811636;32;20024;-73
2022/10/23 11:53:40;;;;;;;5.05;3.08;;;20.20;81.20;;;;;;10815593;33;20020;-73
2022/10/23 11:59:48;;;;;;;9.93;3.65;;;20.20;81.30;;;;;;10826600;33;20024;-74
2022/10/23 12:06:02;;;;;;;4.53;2.97;;;20.30;81.00;;;;;;10811957;33;20050;-73
2022/10/23 12:12:16;;;;;;;9.40;4.20;;;20.40;80.80;;;;;;10815435;33;20086;-73
2022/10/23 12:18:18;;;;;;;5.97;3.83;;;20.50;80.60;;;;;;10828626;33;20032;-73
2022/10/23 12:25:02;;;;;;;6.82;3.42;;;20.60;80.40;;;;;;10828404;33;20570;-73
2022/10/23 12:31:12;;;;;;;6.03;3.42;;;20.60;80.10;;;;;;10815711;33;20079;-73
2022/10/23 12:37:53;;;;;;;10.68;4.95;;;20.60;80.40;;;;;;10827632;33;20470;-73
2022/10/23 12:44:08;;;;;;;7.53;5.32;;;20.70;80.40;;;;;;10827382;33;20028;-73
2022/10/23 12:50:21;;;;;;;6.75;4.20;;;20.70;80.30;;;;;;10827151;33;20050;-73
2022/10/23 12:56:25;;;;;;;7.37;4.10;;;20.70;80.30;;;;;;10826750;33;20047;-74
2022/10/23 13:02:30;;;;;;;9.35;4.55;;;20.70;80.40;;;;;;10822916;33;20040;-74
2022/10/23 13:08:39;;;;;;;16.58;5.43;;;20.70;80.30;;;;;;10822667;33;20422;-74
2022/10/23 13:15:17;;;;;;;8.85;4.93;;;20.80;80.20;;;;;;10809705;32;20032;-73
2022/10/23 13:21:28;;;;;;;6.07;4.00;;;20.80;80.10;;;;;;10674796;33;20060;-74
2022/10/23 13:27:33;;;;;;;6.15;3.58;;;20.90;80.00;;;;;;10672593;33;20420;-74
2022/10/23 13:33:51;;;;;;;8.25;4.22;;;21.00;79.90;;;;;;10675820;33;20033;-74
2022/10/23 13:40:26;;;;;;;7.70;4.97;;;21.10;79.70;;;;;;10676276;33;20413;-74
2022/10/23 13:46:28;;;;;;;9.23;4.37;;;21.30;79.40;;;;;;10726057;32;20350;-74
2022/10/23 13:52:30;;;;;;;7.55;3.87;;;21.30;79.10;;;;;;10675129;33;20021;-74
2022/10/23 13:58:33;;;;;;;15.15;6.00;;;21.30;79.30;;;;;;10818953;33;20044;-74
2022/10/23 14:04:35;;;;;;;6.93;4.43;;;21.30;79.40;;;;;;10825222;33;20055;-74
2022/10/23 14:10:37;;;;;;;8.85;4.87;;;21.30;79.50;;;;;;10825014;33;20028;-74
2022/10/23 14:16:40;;;;;;;7.55;4.60;;;21.10;79.60;;;;;;10824752;33;20023;-74
2022/10/23 14:22:42;;;;;;;8.77;3.85;;;21.00;79.90;;;;;;10809886;32;20036;-75
2022/10/23 14:28:46;;;;;;;6.55;4.18;;;20.90;80.10;;;;;;10820372;33;20085;-74
2022/10/23 14:34:53;;;;;;;8.43;5.00;;;20.80;80.30;;;;;;10824425;33;20412;-75
2022/10/23 14:40:55;;;;;;;5.50;3.55;;;20.80;80.40;;;;;;10810843;33;20055;-74
2022/10/23 14:46:58;;;;;;;9.00;3.70;;;20.70;80.60;;;;;;10819876;33;20062;-74
2022/10/23 14:53:02;;;;;;;13.98;4.40;;;20.70;80.70;;;;;;10819551;33;20036;-74
2022/10/23 14:59:05;;;;;;;21.98;3.80;;;20.60;80.90;;;;;;10809175;33;20048;-74
2022/10/23 15:05:07;;;;;;;6.22;3.78;;;20.50;81.00;;;;;;10828470;32;20039;-74
2022/10/23 15:11:09;;;;;;;9.05;4.43;;;20.50;81.20;;;;;;10816449;33;20020;-75
2022/10/23 15:17:16;;;;;;;6.43;4.57;;;20.50;81.20;;;;;;10829773;33;20389;-75
2022/10/23 15:23:18;;;;;;;7.85;4.22;;;20.40;81.40;;;;;;10825284;33;20051;-74
2022/10/23 15:29:20;;;;;;;6.45;3.78;;;20.30;81.60;;;;;;10829082;33;20055;-74
2022/10/23 15:35:23;;;;;;;10.00;4.32;;;20.30;81.70;;;;;;10824959;33;20396;-74
2022/10/23 15:41:33;;;;;;;12.55;4.93;;;20.30;81.70;;;;;;10828654;33;20055;-74
2022/10/23 15:47:36;;;;;;;6.45;4.55;;;20.30;81.80;;;;;;10828621;33;20032;-76
2022/10/23 15:53:38;;;;;;;6.70;3.95;;;20.20;81.90;;;;;;10815610;33;20359;-76
2022/10/23 15:59:40;;;;;;;6.25;4.03;;;20.10;82.00;;;;;;10824278;33;20329;-76
2022/10/23 16:05:42;;;;;;;6.93;3.87;;;20.10;82.20;;;;;;10824405;33;20392;-76
2022/10/23 16:11:44;;;;;;;6.62;3.35;;;20.00;82.30;;;;;;10823646;33;20287;-76
2022/10/23 16:17:47;;;;;;;7.45;4.87;;;19.90;82.50;;;;;;10823267;32;20054;-76
2022/10/23 16:24:12;;;;;;;7.60;4.07;;;19.80;82.60;;;;;;10830838;27;20025;-76
2022/10/23 16:30:15;;;;;;;8.10;4.28;;;19.80;82.70;;;;;;10824079;33;20032;-76
2022/10/23 16:36:17;;;;;;;7.10;3.50;;;19.70;82.80;;;;;;10826679;33;20050;-76
2022/10/23 16:42:31;;;;;;;6.82;4.20;;;19.60;82.80;;;;;;10823305;33;20320;-76
2022/10/23 16:48:36;;;;;;;8.85;4.18;;;19.50;83.00;;;;;;10811239;33;20028;-75
2022/10/23 16:54:38;;;;;;;7.18;4.87;;;19.40;83.00;;;;;;10822883;33;20031;-75
2022/10/23 17:01:10;;;;;;;13.05;4.85;;;19.30;83.10;;;;;;10826661;33;20051;-76
2022/10/23 17:07:13;;;;;;;8.07;5.45;;;19.30;83.10;;;;;;10827792;33;20016;-75
2022/10/23 17:13:15;;;;;;;7.22;4.15;;;19.30;83.20;;;;;;10810769;33;20031;-76
2022/10/23 17:19:20;;;;;;;7.93;5.10;;;19.30;83.30;;;;;;10812948;33;20028;-76
2022/10/23 17:25:22;;;;;;;8.13;4.60;;;19.20;83.30;;;;;;10821177;32;20047;-75
2022/10/23 17:31:33;;;;;;;7.90;4.45;;;19.20;83.30;;;;;;10821794;33;20047;-76
2022/10/23 17:37:35;;;;;;;9.77;5.00;;;19.20;83.30;;;;;;10821816;33;20466;-76
2022/10/23 17:43:38;;;;;;;7.87;4.68;;;19.20;83.30;;;;;;10826179;32;20027;-77
2022/10/23 17:49:45;;;;;;;5.82;3.85;;;19.20;83.40;;;;;;10860955;32;20024;-77
2022/10/23 17:56:05;;;;;;;9.18;4.10;;;19.20;83.40;;;;;;10862494;32;20046;-77
2022/10/23 18:02:11;;;;;;;6.93;4.57;;;19.10;83.50;;;;;;10862288;32;20020;-77
2022/10/23 18:08:14;;;;;;;6.20;4.07;;;19.00;83.60;;;;;;10861783;32;20027;-77
2022/10/23 18:14:19;;;;;;;5.50;3.75;;;19.00;83.70;;;;;;10861897;32;20012;-77
2022/10/23 18:20:21;;;;;;;10.38;7.03;;;19.00;83.70;;;;;;10848577;32;20028;-77
2022/10/23 18:26:26;;;;;;;12.95;6.75;;;18.90;83.80;;;;;;10861402;32;20012;-77
2022/10/23 18:32:28;;;;;;;9.15;5.15;;;18.90;83.80;;;;;;10861462;32;20335;-77
2022/10/23 18:38:30;;;;;;;10.63;4.95;;;18.80;84.00;;;;;;10867786;32;20015;-77
2022/10/23 18:44:33;;;;;;;6.60;4.05;;;18.80;84.10;;;;;;10873425;32;20020;-77
2022/10/23 18:50:36;;;;;;;8.43;5.43;;;18.80;84.10;;;;;;10873347;32;20410;-77
2022/10/23 18:56:39;;;;;;;6.82;4.62;;;18.80;84.00;;;;;;10860096;32;20019;-77
2022/10/23 19:02:41;;;;;;;9.55;4.53;;;18.70;84.10;;;;;;10869061;32;20050;-77
2022/10/23 19:08:44;;;;;;;9.07;6.25;;;18.70;84.20;;;;;;10871453;32;20055;-77
2022/10/23 19:15:21;;;;;;;7.28;4.90;;;18.70;84.40;;;;;;10859520;32;20078;-77
2022/10/23 19:21:30;;;;;;;10.45;5.32;;;18.70;84.40;;;;;;10872713;32;20049;-77
2022/10/23 19:27:31;;;;;;;7.50;5.05;;;18.60;84.40;;;;;;10872666;32;20046;-77
2022/10/23 19:33:35;;;;;;;8.65;5.80;;;18.60;84.50;;;;;;10872379;32;20405;-77
2022/10/23 19:39:37;;;;;;;8.60;6.47;;;18.60;84.50;;;;;;10872261;32;20481;-75
2022/10/23 19:45:39;;;;;;;5.55;3.78;;;18.50;84.60;;;;;;10872133;32;20032;-75
2022/10/23 19:51:49;;;;;;;7.35;5.32;;;18.50;84.60;;;;;;10862209;32;20042;-75
2022/10/23 19:57:51;;;;;;;9.88;5.87;;;18.50;84.70;;;;;;10852701;32;20016;-75
2022/10/23 20:03:56;;;;;;;7.37;4.55;;;18.40;84.80;;;;;;10865797;32;20086;-75
2022/10/23 20:09:59;;;;;;;6.93;4.62;;;18.40;84.90;;;;;;10865252;32;20058;-75
2022/10/23 20:16:01;;;;;;;10.57;5.72;;;18.40;84.90;;;;;;10865143;32;20050;-75
2022/10/23 20:22:10;;;;;;;7.93;5.43;;;18.40;84.90;;;;;;10865098;32;20032;-77
2022/10/23 20:28:20;;;;;;;10.35;7.10;;;18.50;84.80;;;;;;10864917;32;20058;-77
2022/10/23 20:34:22;;;;;;;12.10;7.40;;;18.50;84.80;;;;;;10864860;32;20104;-77
2022/10/23 20:40:25;;;;;;;9.05;6.47;;;18.40;84.90;;;;;;10860401;32;20062;-77
2022/10/23 20:46:27;;;;;;;10.18;7.47;;;18.40;84.90;;;;;;10864390;32;20411;-77
2022/10/23 20:52:31;;;;;;;12.40;8.15;;;18.40;85.00;;;;;;10859832;32;20027;-77
2022/10/23 20:58:34;;;;;;;8.77;5.32;;;18.40;84.90;;;;;;10862932;32;20031;-77
2022/10/23 21:04:36;;;;;;;10.88;5.18;;;18.40;84.90;;;;;;10850583;32;20024;-77
2022/10/23 21:10:45;;;;;;;9.10;6.07;;;18.40;84.90;;;;;;10863783;32;20024;-77
2022/10/23 21:16:47;;;;;;;9.87;6.70;;;18.30;85.00;;;;;;10863415;32;20036;-77
2022/10/23 21:22:53;;;;;;;9.77;5.80;;;18.30;85.00;;;;;;10859217;32;20028;-77
2022/10/23 21:28:57;;;;;;;9.05;6.32;;;18.30;85.10;;;;;;10863135;32;20395;-77
2022/10/23 21:34:59;;;;;;;7.18;4.85;;;18.30;85.10;;;;;;10862860;32;20054;-77
2022/10/23 21:41:09;;;;;;;9.05;4.95;;;18.20;85.10;;;;;;10864750;32;20015;-77
2022/10/23 21:47:11;;;;;;;12.00;5.43;;;18.20;85.20;;;;;;10849352;32;20434;-77
2022/10/23 21:53:13;;;;;;;7.12;4.25;;;18.20;85.30;;;;;;10862380;32;20038;-77
2022/10/23 21:59:21;;;;;;;6.40;4.28;;;18.20;85.30;;;;;;10862276;32;20073;-77
2022/10/23 22:05:24;;;;;;;14.23;5.77;;;18.20;85.30;;;;;;10862054;32;20046;-77
2022/10/23 22:11:26;;;;;;;13.32;6.75;;;18.20;85.30;;;;;;10861362;32;20431;-77
2022/10/23 22:17:28;;;;;;;8.55;5.32;;;18.20;85.20;;;;;;10861794;32;20040;-77
2022/10/23 22:23:30;;;;;;;7.45;4.50;;;18.20;85.10;;;;;;10860605;32;20027;-77
2022/10/23 22:29:32;;;;;;;8.57;5.35;;;18.10;85.20;;;;;;10861603;32;20035;-77
2022/10/23 22:36:03;;;;;;;8.48;5.12;;;18.10;85.20;;;;;;10861597;32;20396;-77
2022/10/23 22:42:05;;;;;;;12.57;6.30;;;18.00;85.20;;;;;;10861322;32;20024;-77
2022/10/23 22:48:07;;;;;;;9.20;5.37;;;18.10;85.30;;;;;;10861096;32;20008;-77
2022/10/23 22:54:10;;;;;;;13.02;5.85;;;18.00;85.40;;;;;;10860921;32;20066;-77
2022/10/23 23:00:12;;;;;;;8.23;5.97;;;18.10;85.40;;;;;;10860723;32;20028;-77
2022/10/23 23:06:20;;;;;;;16.35;6.47;;;18.10;85.30;;;;;;10860613;32;20023;-77
2022/10/23 23:12:22;;;;;;;10.03;5.90;;;18.10;85.30;;;;;;10858276;32;20050;-77
2022/10/23 23:18:25;;;;;;;11.20;6.70;;;18.20;85.20;;;;;;10857075;32;20016;-77
2022/10/23 23:24:27;;;;;;;9.23;6.95;;;18.20;85.30;;;;;;10862386;32;20046;-77
2022/10/23 23:30:29;;;;;;;11.68;6.97;;;18.10;85.40;;;;;;10866705;32;20020;-77
2022/10/23 23:36:47;;;;;;;10.70;4.60;;;18.10;85.50;;;;;;10866605;32;20339;-77
2022/10/23 23:42:50;;;;;;;8.13;5.47;;;18.10;85.70;;;;;;10862198;32;20119;-77
2022/10/23 23:48:52;;;;;;;10.05;6.43;;;18.10;85.70;;;;;;10866005;32;20039;-77
2022/10/23 23:54:57;;;;;;;10.27;6.75;;;18.10;85.70;;;;;;10866016;32;20070;-77
